createdAt,value
2018-01-04T00:02:15.033Z,87.00
2018-01-04T00:04:42.532Z,87.00
2018-01-04T00:07:10.521Z,87.00
2018-01-04T00:09:38.933Z,87.00
2018-01-04T00:12:06.813Z,86.40
2018-01-04T00:14:34.305Z,86.40
2018-01-04T00:17:02.209Z,86.30
2018-01-04T00:19:30.181Z,86.30
2018-01-04T00:21:57.704Z,86.20
2018-01-04T00:24:25.240Z,86.20
2018-01-04T00:26:52.750Z,86.10
2018-01-04T00:29:20.632Z,85.90
2018-01-04T00:31:48.533Z,86.00
2018-01-04T00:34:16.507Z,86.00
2018-01-04T00:36:44.019Z,86.00
2018-01-04T00:39:11.524Z,86.10
2018-01-04T00:41:39.017Z,86.00
2018-01-04T00:44:06.500Z,86.20
2018-01-04T00:46:33.999Z,86.00
2018-01-04T00:49:01.505Z,85.90
2018-01-04T00:51:29.032Z,86.10
2018-01-04T00:53:56.513Z,85.90
2018-01-04T00:56:24.028Z,86.30
2018-01-04T00:58:51.515Z,85.90
2018-01-04T01:01:19.009Z,86.00
2018-01-04T01:03:46.503Z,86.30
2018-01-04T01:06:14.230Z,86.20
2018-01-04T01:08:41.731Z,86.00
2018-01-04T01:11:09.284Z,86.20
2018-01-04T01:13:37.189Z,86.00
2018-01-04T01:16:04.677Z,86.00
2018-01-04T01:18:32.180Z,86.20
2018-01-04T01:20:59.675Z,85.60
2018-01-04T01:23:27.284Z,85.80
2018-01-04T01:25:54.759Z,85.90
2018-01-04T01:28:22.261Z,85.90
2018-01-04T01:30:49.752Z,85.80
2018-01-04T01:33:17.728Z,86.10
2018-01-04T01:35:45.313Z,86.10
2018-01-04T01:38:12.812Z,85.90
2018-01-04T01:40:40.692Z,86.20
2018-01-04T01:43:08.632Z,85.90
2018-01-04T01:45:36.121Z,85.90
2018-01-04T01:48:03.614Z,86.00
2018-01-04T01:50:31.117Z,85.90
2018-01-04T01:52:58.613Z,85.80
2018-01-04T01:55:26.197Z,86.00
2018-01-04T01:57:53.680Z,85.80
2018-01-04T02:00:21.255Z,86.00
2018-01-04T02:02:48.743Z,85.60
2018-01-04T02:05:16.364Z,85.80
2018-01-04T02:07:44.323Z,85.60
2018-01-04T02:10:11.924Z,85.60
2018-01-04T02:12:39.805Z,85.30
2018-01-04T02:15:07.316Z,85.30
2018-01-04T02:17:35.202Z,85.70
2018-01-04T02:20:15.082Z,85.70
2018-01-04T02:25:51.373Z,85.40
2018-01-04T02:28:30.961Z,85.60
2018-01-04T02:31:10.312Z,86.00
2018-01-04T02:33:49.704Z,85.80
2018-01-04T02:36:29.669Z,85.90
2018-01-04T02:39:09.025Z,85.90
2018-01-04T02:41:48.691Z,85.80
2018-01-04T02:44:28.056Z,85.70
2018-01-04T02:46:55.557Z,85.90
2018-01-04T02:49:23.137Z,86.00
2018-01-04T02:51:50.712Z,85.80
2018-01-04T02:54:18.198Z,86.00
2018-01-04T02:56:45.775Z,86.00
2018-01-04T02:59:13.368Z,86.00
2018-01-04T03:01:40.958Z,86.10
2018-01-04T03:04:08.536Z,85.80
2018-01-04T03:06:36.021Z,86.10
2018-01-04T03:09:03.520Z,86.20
2018-01-04T03:11:31.501Z,86.10
2018-01-04T03:13:58.991Z,86.10
2018-01-04T03:16:26.570Z,86.00
2018-01-04T03:18:54.073Z,86.30
2018-01-04T03:21:21.976Z,86.20
2018-01-04T03:23:49.485Z,86.20
2018-01-04T03:26:22.507Z,86.10
2018-01-04T03:28:55.668Z,85.80
2018-01-04T03:31:28.782Z,86.30
2018-01-04T03:34:02.356Z,86.10
2018-01-04T03:36:35.426Z,86.10
2018-01-04T03:39:08.912Z,86.60
2018-01-04T03:41:42.095Z,86.70
2018-01-04T03:44:15.324Z,86.40
2018-01-04T03:46:48.416Z,86.50
2018-01-04T03:49:21.909Z,86.40
2018-01-04T03:51:55.027Z,86.40
2018-01-04T03:54:28.212Z,86.80
2018-01-04T03:57:01.422Z,86.90
2018-01-04T03:59:34.535Z,86.90
2018-01-04T04:02:07.772Z,86.70
2018-01-04T04:04:40.884Z,86.80
2018-01-04T04:07:14.076Z,86.70
2018-01-04T04:09:41.567Z,86.60
2018-01-04T04:12:09.062Z,87.10
2018-01-04T04:14:36.580Z,87.20
2018-01-04T04:17:04.052Z,87.30
2018-01-04T04:19:31.553Z,87.50
2018-01-04T04:21:59.052Z,87.50
2018-01-04T04:24:27.024Z,87.20
2018-01-04T04:26:54.523Z,87.20
2018-01-04T04:29:22.412Z,87.00
2018-01-04T04:31:50.386Z,87.00
2018-01-04T04:34:17.869Z,87.00
2018-01-04T04:36:45.465Z,86.90
2018-01-04T04:39:12.948Z,86.90
2018-01-04T04:41:40.477Z,86.90
2018-01-04T04:44:07.966Z,86.90
2018-01-04T04:46:35.492Z,87.30
2018-01-04T04:49:02.978Z,87.00
2018-01-04T04:51:30.558Z,87.00
2018-01-04T04:53:58.060Z,87.10
2018-01-04T04:56:26.036Z,87.00
2018-01-04T04:58:53.623Z,87.00
2018-01-04T05:01:21.212Z,87.30
2018-01-04T05:03:48.712Z,87.30
2018-01-04T05:06:16.583Z,87.10
2018-01-04T05:08:44.089Z,87.10
2018-01-04T05:11:11.978Z,86.80
2018-01-04T05:13:39.955Z,87.60
2018-01-04T05:16:07.535Z,87.60
2018-01-04T05:18:35.037Z,87.70
2018-01-04T05:21:02.916Z,87.70
2018-01-04T05:23:30.437Z,87.70
2018-01-04T05:25:57.921Z,87.60
2018-01-04T05:28:25.405Z,87.50
2018-01-04T05:30:52.948Z,87.60
2018-01-04T05:33:20.523Z,87.60
2018-01-04T05:35:48.117Z,87.70
2018-01-04T05:38:15.697Z,87.60
2018-01-04T05:40:43.195Z,87.70
2018-01-04T05:43:11.072Z,87.80
2018-01-04T05:45:38.657Z,87.80
2018-01-04T05:48:06.146Z,87.80
2018-01-04T05:50:33.641Z,87.80
2018-01-04T05:53:01.521Z,87.70
2018-01-04T05:55:29.036Z,87.70
2018-01-04T05:57:56.507Z,87.70
2018-01-04T06:00:24.385Z,87.70
2018-01-04T06:02:51.888Z,87.70
2018-01-04T06:05:19.392Z,88.00
2018-01-04T06:07:46.896Z,87.70
2018-01-04T06:10:14.371Z,87.80
2018-01-04T06:12:41.876Z,87.70
2018-01-04T06:15:09.352Z,88.00
2018-01-04T06:17:36.849Z,87.80
2018-01-04T06:20:04.336Z,88.10
2018-01-04T06:22:31.915Z,88.00
2018-01-04T06:24:59.509Z,87.90
2018-01-04T06:27:27.097Z,87.70
2018-01-04T06:29:54.704Z,87.80
2018-01-04T06:32:22.612Z,88.10
2018-01-04T06:34:50.096Z,88.10
2018-01-04T06:37:17.577Z,88.00
2018-01-04T06:39:45.083Z,87.90
2018-01-04T06:42:12.567Z,88.10
2018-01-04T06:44:40.089Z,88.10
2018-01-04T06:47:07.572Z,87.90
2018-01-04T06:49:35.063Z,87.70
2018-01-04T06:52:02.657Z,88.00
2018-01-04T06:54:30.556Z,87.90
2018-01-04T06:56:58.515Z,87.60
2018-01-04T06:59:26.113Z,87.50
2018-01-04T07:01:53.696Z,87.70
2018-01-04T07:04:21.285Z,87.30
2018-01-04T07:06:48.759Z,87.30
2018-01-04T07:09:16.277Z,87.70
2018-01-04T07:11:43.851Z,87.80
2018-01-04T07:14:11.819Z,87.90
2018-01-04T07:16:39.404Z,87.80
2018-01-04T07:19:06.887Z,87.50
2018-01-04T07:21:34.379Z,87.90
2018-01-04T07:24:01.956Z,87.70
2018-01-04T07:26:29.456Z,87.50
2018-01-04T07:28:57.340Z,87.20
2018-01-04T07:31:24.851Z,87.10
2018-01-04T07:33:52.729Z,87.20
2018-01-04T07:36:20.641Z,87.50
2018-01-04T07:38:49.860Z,87.50
2018-01-04T07:41:17.351Z,87.20
2018-01-04T07:43:44.883Z,87.10
2018-01-04T07:46:12.401Z,86.90
2018-01-04T07:48:40.285Z,87.30
2018-01-04T07:51:08.171Z,87.30
2018-01-04T07:53:36.068Z,87.20
2018-01-04T07:56:03.946Z,87.30
2018-01-04T07:58:31.519Z,87.30
2018-01-04T08:00:59.000Z,87.50
2018-01-04T08:03:26.509Z,87.50
2018-01-04T08:05:54.388Z,87.00
2018-01-04T08:08:21.967Z,87.00
2018-01-04T08:10:49.465Z,87.00
2018-01-04T08:13:17.360Z,87.30
2018-01-04T08:15:45.364Z,87.00
2018-01-04T08:18:13.264Z,87.00
2018-01-04T08:20:41.146Z,87.10
2018-01-04T08:23:09.123Z,87.30
2018-01-04T08:25:36.604Z,87.30
2018-01-04T08:28:04.089Z,87.00
2018-01-04T08:30:31.589Z,87.10
2018-01-04T08:32:59.073Z,87.30
2018-01-04T08:35:27.055Z,87.70
2018-01-04T08:37:54.633Z,87.70
2018-01-04T08:40:22.259Z,88.10
2018-01-04T08:42:49.740Z,87.60
2018-01-04T08:45:17.285Z,87.40
2018-01-04T08:47:44.873Z,87.20
2018-01-04T08:50:12.447Z,86.90
2018-01-04T08:52:40.451Z,86.30
2018-01-04T08:55:08.033Z,86.30
2018-01-04T08:57:35.745Z,86.40
2018-01-04T09:00:03.630Z,86.20
2018-01-04T09:02:31.556Z,86.00
2018-01-04T09:04:59.031Z,86.00
2018-01-04T09:07:26.598Z,86.80
2018-01-04T09:09:54.568Z,83.20
2018-01-04T09:12:22.158Z,83.20
2018-01-04T09:14:49.742Z,84.10
2018-01-04T09:17:17.316Z,85.40
2018-01-04T09:19:44.800Z,86.90
2018-01-04T09:22:12.379Z,87.90
2018-01-04T09:24:39.869Z,89.00
2018-01-04T09:27:07.381Z,89.20
2018-01-04T09:29:35.253Z,90.20
2018-01-04T09:32:02.832Z,90.20
2018-01-04T09:34:30.420Z,90.90
2018-01-04T09:36:58.004Z,91.10
2018-01-04T09:39:25.501Z,91.20
2018-01-04T09:41:53.376Z,93.20
2018-01-04T09:44:20.959Z,93.20
2018-01-04T09:46:48.468Z,93.30
2018-01-04T09:49:16.385Z,93.20
2018-01-04T09:51:43.921Z,93.20
2018-01-04T09:54:11.496Z,94.00
2018-01-04T09:56:38.971Z,94.20
2018-01-04T09:59:06.449Z,94.60
2018-01-04T10:01:34.066Z,95.50
2018-01-04T10:04:01.563Z,96.00
2018-01-04T10:06:29.464Z,96.10
2018-01-04T10:08:57.428Z,96.40
2018-01-04T10:11:24.948Z,96.40
2018-01-04T10:13:52.497Z,96.40
2018-01-04T10:16:20.010Z,96.90
2018-01-04T10:18:47.484Z,97.30
2018-01-04T10:21:15.462Z,97.40
2018-01-04T10:23:43.054Z,97.40
2018-01-04T10:26:10.957Z,97.70
2018-01-04T10:28:38.848Z,97.50
2018-01-04T10:31:06.824Z,97.40
2018-01-04T10:33:34.405Z,97.40
2018-01-04T10:36:01.994Z,97.50
2018-01-04T10:38:29.495Z,97.50
2018-01-04T10:40:57.385Z,98.10
2018-01-04T10:43:25.360Z,98.70
2018-01-04T10:45:52.872Z,98.70
2018-01-04T10:48:20.376Z,98.50
2018-01-04T10:50:47.908Z,98.80
2018-01-04T10:53:16.026Z,98.50
2018-01-04T10:55:43.906Z,98.40
2018-01-04T10:58:11.417Z,98.50
2018-01-04T11:00:38.923Z,98.30
2018-01-04T11:03:06.400Z,98.40
2018-01-04T11:05:33.927Z,97.90
2018-01-04T11:08:01.440Z,98.00
2018-01-04T11:10:29.408Z,97.70
2018-01-04T11:12:56.997Z,97.70
2018-01-04T11:15:24.513Z,97.60
2018-01-04T11:17:51.997Z,97.70
2018-01-04T11:20:19.500Z,98.00
2018-01-04T11:22:47.048Z,97.70
2018-01-04T11:25:14.936Z,97.10
2018-01-04T11:27:42.812Z,96.80
2018-01-04T11:30:10.398Z,96.80
2018-01-04T11:32:37.876Z,96.90
2018-01-04T11:35:05.451Z,97.20
2018-01-04T11:37:32.968Z,97.70
2018-01-04T11:40:00.869Z,97.80
2018-01-04T11:42:28.347Z,97.80
2018-01-04T11:44:56.252Z,97.70
2018-01-04T11:47:23.800Z,97.70
2018-01-04T11:49:51.308Z,97.40
2018-01-04T11:52:18.881Z,96.90
2018-01-04T11:54:46.780Z,97.30
2018-01-04T11:57:14.749Z,97.30
2018-01-04T11:59:42.238Z,97.30
2018-01-04T12:02:09.816Z,97.20
2018-01-04T12:04:37.289Z,97.30
2018-01-04T12:07:04.920Z,97.20
2018-01-04T12:09:32.424Z,96.80
2018-01-04T12:11:59.924Z,97.20
2018-01-04T12:14:27.411Z,97.30
2018-01-04T12:16:54.908Z,98.10
2018-01-04T12:19:22.430Z,98.00
2018-01-04T12:21:49.924Z,97.90
2018-01-04T12:24:17.477Z,91.80
2018-01-04T12:26:45.006Z,91.70
2018-01-04T12:29:12.489Z,89.70
2018-01-04T12:31:39.995Z,92.00
2018-01-04T12:34:07.481Z,93.60
2018-01-04T12:36:35.075Z,95.20
2018-01-04T12:39:02.556Z,95.70
2018-01-04T12:41:30.053Z,96.20
2018-01-04T12:43:57.527Z,96.20
2018-01-04T12:46:25.058Z,96.80
2018-01-04T12:48:52.554Z,96.90
2018-01-04T12:51:20.072Z,97.10
2018-01-04T12:53:47.565Z,97.30
2018-01-04T12:56:15.060Z,97.80
2018-01-04T12:58:43.860Z,98.10
2018-01-04T13:01:11.442Z,98.10
2018-01-04T13:03:38.937Z,98.70
2018-01-04T13:06:06.517Z,98.70
2018-01-04T13:08:33.988Z,98.40
2018-01-04T13:11:01.484Z,98.00
2018-01-04T13:13:28.964Z,98.50
2018-01-04T13:15:56.451Z,98.30
2018-01-04T13:18:23.932Z,98.10
2018-01-04T13:20:51.413Z,98.00
2018-01-04T13:23:19.012Z,97.90
2018-01-04T13:25:46.893Z,98.30
2018-01-04T13:28:14.398Z,98.30
2018-01-04T13:30:42.369Z,98.20
2018-01-04T13:33:09.881Z,98.20
2018-01-04T13:35:37.759Z,98.40
2018-01-04T13:38:05.660Z,98.50
2018-01-04T13:40:33.540Z,98.60
2018-01-04T13:43:01.048Z,98.60
2018-01-04T13:45:28.601Z,98.40
2018-01-04T13:47:56.113Z,98.40
2018-01-04T13:50:23.595Z,98.30
2018-01-04T13:52:51.100Z,98.40
2018-01-04T13:55:18.581Z,98.50
2018-01-04T13:57:46.081Z,98.70
2018-01-04T14:00:13.551Z,98.40
2018-01-04T14:02:41.069Z,98.40
2018-01-04T14:05:08.560Z,98.80
2018-01-04T14:07:36.132Z,98.90
2018-01-04T14:10:03.616Z,98.90
2018-01-04T14:12:31.116Z,99.00
2018-01-04T14:14:58.596Z,99.20
2018-01-04T14:17:26.100Z,99.10
2018-01-04T14:19:53.590Z,98.70
2018-01-04T14:22:21.088Z,99.20
2018-01-04T14:24:48.572Z,94.90
2018-01-04T14:27:16.159Z,96.40
2018-01-04T14:29:43.693Z,97.70
2018-01-04T14:32:11.193Z,98.90
2018-01-04T14:34:39.073Z,99.50
2018-01-04T14:37:06.568Z,99.50
2018-01-04T14:39:34.460Z,99.90
2018-01-04T14:42:02.449Z,99.90
2018-01-04T14:44:29.932Z,99.90
2018-01-04T14:46:57.809Z,99.90
2018-01-04T14:49:25.400Z,99.90
2018-01-04T14:51:52.986Z,99.90
2018-01-04T14:54:20.881Z,99.90
2018-01-04T14:56:48.763Z,99.90
2018-01-04T14:59:16.348Z,99.90
2018-01-04T15:01:43.831Z,99.90
2018-01-04T15:04:11.406Z,99.90
2018-01-04T15:06:38.919Z,99.90
2018-01-04T15:09:06.410Z,99.90
2018-01-04T15:11:34.299Z,99.90
2018-01-04T15:14:02.191Z,99.90
2018-01-04T15:16:30.063Z,99.90
2018-01-04T15:18:57.653Z,99.90
2018-01-04T15:21:25.233Z,99.90
2018-01-04T15:23:52.765Z,99.90
2018-01-04T15:26:20.283Z,99.90
2018-01-04T15:28:47.871Z,99.90
2018-01-04T15:31:15.361Z,99.90
2018-01-04T15:33:42.932Z,99.90
2018-01-04T15:36:10.424Z,99.90
2018-01-04T15:38:37.937Z,99.90
2018-01-04T15:41:05.824Z,99.90
2018-01-04T15:43:33.806Z,99.90
2018-01-04T15:46:01.715Z,99.90
2018-01-04T15:48:29.631Z,99.90
2018-01-04T15:50:57.116Z,99.90
2018-01-04T15:53:24.641Z,99.90
2018-01-04T15:55:52.128Z,99.90
2018-01-04T15:58:19.637Z,99.90
2018-01-04T16:00:47.518Z,99.90
2018-01-04T16:03:15.019Z,99.90
2018-01-04T16:05:42.975Z,98.50
2018-01-04T16:08:10.532Z,98.50
2018-01-04T16:10:38.059Z,98.60
2018-01-04T16:13:05.547Z,98.80
2018-01-04T16:15:33.058Z,99.10
2018-01-04T16:18:00.543Z,99.20
2018-01-04T16:20:28.052Z,99.40
2018-01-04T16:22:55.551Z,99.10
2018-01-04T16:25:23.060Z,99.00
2018-01-04T16:27:50.781Z,98.90
2018-01-04T16:30:18.297Z,97.50
2018-01-04T16:32:45.877Z,96.70
2018-01-04T16:35:13.501Z,96.30
2018-01-04T16:37:41.033Z,96.30
2018-01-04T16:40:08.540Z,96.10
2018-01-04T16:42:36.212Z,95.90
2018-01-04T16:45:03.740Z,95.40
2018-01-04T16:47:31.476Z,94.80
2018-01-04T16:49:59.013Z,94.70
2018-01-04T16:52:27.147Z,94.20
2018-01-04T16:54:54.673Z,94.20
2018-01-04T16:57:22.227Z,93.90
2018-01-04T16:59:49.771Z,93.60
2018-01-04T17:02:17.745Z,93.00
2018-01-04T17:04:45.247Z,93.00
2018-01-04T17:07:13.192Z,91.20
2018-01-04T17:09:40.809Z,91.20
2018-01-04T17:12:08.351Z,91.20
2018-01-04T17:14:35.879Z,91.20
2018-01-04T17:17:03.474Z,90.80
2018-01-04T17:19:31.413Z,89.50
2018-01-04T17:21:59.107Z,89.40
2018-01-04T17:24:26.621Z,89.60
2018-01-04T17:26:54.588Z,89.20
2018-01-04T17:29:22.091Z,88.60
2018-01-04T17:31:49.651Z,88.70
2018-01-04T17:34:17.173Z,88.70
2018-01-04T17:36:44.735Z,89.40
2018-01-04T17:39:12.219Z,88.70
2018-01-04T17:41:39.898Z,87.30
2018-01-04T17:44:07.388Z,87.30
2018-01-04T17:46:35.049Z,86.20
2018-01-04T17:49:02.549Z,85.40
2018-01-04T17:51:30.190Z,86.20
2018-01-04T17:53:57.764Z,85.70
2018-01-04T17:56:25.793Z,84.90
2018-01-04T17:58:53.293Z,84.90
2018-01-04T18:01:20.942Z,84.80
2018-01-04T18:03:48.425Z,85.40
2018-01-04T18:06:16.005Z,85.30
2018-01-04T18:08:43.672Z,84.90
2018-01-04T18:11:11.381Z,85.10
2018-01-04T18:13:38.920Z,84.80
2018-01-04T18:16:06.435Z,84.80
2018-01-04T18:18:34.319Z,83.90
2018-01-04T18:21:01.844Z,83.90
2018-01-04T18:23:29.359Z,84.10
2018-01-04T18:25:56.977Z,83.50
2018-01-04T18:28:24.549Z,83.20
2018-01-04T18:30:52.065Z,83.20
2018-01-04T18:33:19.657Z,81.40
2018-01-04T18:35:47.170Z,81.40
2018-01-04T18:38:14.684Z,79.70
2018-01-04T18:40:42.197Z,79.70
2018-01-04T18:43:10.172Z,79.70
2018-01-04T18:45:37.753Z,79.80
2018-01-04T18:48:05.257Z,80.00
2018-01-04T18:50:34.085Z,79.90
2018-01-04T18:53:01.642Z,79.90
2018-01-04T18:55:29.245Z,79.70
2018-01-04T18:57:57.165Z,78.70
2018-01-04T19:00:24.647Z,78.70
2018-01-04T19:02:52.185Z,79.40
2018-01-04T19:05:20.072Z,79.00
2018-01-04T19:07:47.665Z,79.00
2018-01-04T19:10:15.573Z,78.40
2018-01-04T19:12:43.539Z,78.60
2018-01-04T19:15:11.044Z,78.70
2018-01-04T19:17:38.951Z,78.50
2018-01-04T19:20:06.494Z,78.50
2018-01-04T19:22:33.984Z,78.60
2018-01-04T19:25:01.597Z,78.80
2018-01-04T19:27:29.504Z,79.80
2018-01-04T19:29:56.993Z,79.80
2018-01-04T19:32:24.536Z,80.10
2018-01-04T19:34:52.041Z,80.50
2018-01-04T19:37:19.572Z,80.60
2018-01-04T19:39:47.116Z,80.60
2018-01-04T19:42:14.691Z,80.90
2018-01-04T19:44:42.649Z,81.10
2018-01-04T19:47:10.253Z,81.10
2018-01-04T19:49:37.902Z,81.60
2018-01-04T19:52:05.521Z,82.40
2018-01-04T19:54:33.003Z,83.80
2018-01-04T19:57:00.576Z,84.70
2018-01-04T19:59:28.059Z,83.40
2018-01-04T20:01:55.647Z,84.90
2018-01-04T20:04:23.246Z,86.10
2018-01-04T20:06:50.751Z,85.20
2018-01-04T20:09:18.634Z,85.60
2018-01-04T20:11:46.590Z,85.60
2018-01-04T20:14:14.028Z,85.60
2018-01-04T20:16:41.576Z,85.90
2018-01-04T20:19:09.076Z,82.90
2018-01-04T20:21:37.044Z,79.50
2018-01-04T20:24:04.604Z,79.50
2018-01-04T20:26:32.111Z,78.90
2018-01-04T20:28:59.615Z,78.70
2018-01-04T20:31:27.096Z,77.50
2018-01-04T20:33:54.685Z,77.00
2018-01-04T20:36:22.669Z,77.20
2018-01-04T20:38:50.178Z,77.20
2018-01-04T20:41:17.668Z,77.10
2018-01-04T20:43:45.177Z,77.20
2018-01-04T20:46:12.669Z,76.90
2018-01-04T20:48:40.280Z,77.00
2018-01-04T20:51:07.880Z,77.60
2018-01-04T20:53:35.380Z,76.80
2018-01-04T20:56:02.944Z,77.10
2018-01-04T20:58:30.528Z,77.50
2018-01-04T21:00:58.021Z,78.00
2018-01-04T21:03:25.909Z,77.10
2018-01-04T21:05:53.487Z,77.10
2018-01-04T21:08:20.993Z,77.90
2018-01-04T21:10:48.553Z,77.70
2018-01-04T21:13:16.139Z,77.80
2018-01-04T21:15:43.614Z,77.60
2018-01-04T21:18:11.112Z,77.50
2018-01-04T21:20:39.092Z,77.20
2018-01-04T21:23:06.604Z,77.20
2018-01-04T21:25:34.092Z,77.40
2018-01-04T21:28:01.613Z,77.70
2018-01-04T21:30:29.102Z,77.60
2018-01-04T21:32:56.607Z,77.80
2018-01-04T21:35:24.108Z,77.90
2018-01-04T21:37:51.989Z,77.90
2018-01-04T21:40:19.502Z,77.90
2018-01-04T21:42:46.985Z,77.90
2018-01-04T21:45:14.532Z,78.00
2018-01-04T21:47:42.111Z,78.10
2018-01-04T21:50:09.604Z,78.10
2018-01-04T21:52:37.088Z,78.30
2018-01-04T21:55:04.664Z,78.20
2018-01-04T21:57:32.149Z,78.10
2018-01-04T21:59:59.695Z,78.20
2018-01-04T22:02:27.220Z,78.80
2018-01-04T22:04:54.709Z,78.30
2018-01-04T22:07:22.203Z,78.10
2018-01-04T22:09:50.082Z,77.70
2018-01-04T22:12:17.660Z,77.70
2018-01-04T22:14:45.145Z,77.50
2018-01-04T22:17:13.657Z,78.60
2018-01-04T22:19:41.131Z,78.70
2018-01-04T22:22:08.657Z,79.10
2018-01-04T22:24:36.144Z,79.10
2018-01-04T22:27:03.742Z,79.00
2018-01-04T22:29:31.583Z,78.60
2018-01-04T22:31:59.064Z,78.60
2018-01-04T22:34:26.568Z,78.40
2018-01-04T22:36:54.443Z,79.00
2018-01-04T22:39:21.945Z,79.00
2018-01-04T22:41:49.825Z,78.60
2018-01-04T22:44:17.828Z,78.80
2018-01-04T22:46:45.703Z,79.10
2018-01-04T22:49:13.306Z,79.10
2018-01-04T22:51:41.281Z,79.90
2018-01-04T22:54:08.866Z,79.90
2018-01-04T22:56:36.352Z,79.90
2018-01-04T22:59:03.937Z,79.40
2018-01-04T23:01:31.414Z,79.70
2018-01-04T23:03:58.999Z,79.30
2018-01-04T23:06:26.481Z,79.20
2018-01-04T23:08:53.965Z,79.40
2018-01-04T23:11:21.464Z,79.30
2018-01-04T23:13:49.559Z,79.30
2018-01-04T23:16:17.527Z,79.60
2018-01-04T23:18:45.021Z,79.60
2018-01-04T23:21:12.514Z,79.60
2018-01-04T23:23:39.996Z,79.10
2018-01-04T23:26:07.500Z,79.50
2018-01-04T23:28:35.371Z,79.10
2018-01-04T23:31:02.899Z,79.10
2018-01-04T23:33:30.408Z,78.90
2018-01-04T23:35:57.917Z,78.10
2018-01-04T23:38:25.417Z,78.10
2018-01-04T23:40:53.296Z,78.00
2018-01-04T23:43:20.872Z,78.00
2018-01-04T23:45:48.357Z,78.40
2018-01-04T23:48:15.857Z,78.10
2018-01-04T23:50:43.737Z,78.30
2018-01-04T23:53:11.317Z,78.20
2018-01-04T23:55:38.801Z,78.70
2018-01-04T23:58:06.390Z,78.70
